createdAt,value
2018-12-16T00:02:14.307Z,-0.50
2018-12-16T00:04:46.677Z,-0.50
2018-12-16T00:07:08.221Z,-0.50
2018-12-16T00:09:35.168Z,-0.50
2018-12-16T00:12:02.115Z,-0.50
2018-12-16T00:14:29.136Z,-0.40
2018-12-16T00:16:56.084Z,-0.50
2018-12-16T00:19:23.024Z,-0.40
2018-12-16T00:21:50.166Z,-0.30
2018-12-16T00:24:17.215Z,-0.40
2018-12-16T00:26:55.842Z,-0.30
2018-12-16T00:29:22.780Z,-0.30
2018-12-16T00:31:49.754Z,-0.30
2018-12-16T00:34:16.705Z,-0.30
2018-12-16T00:36:43.651Z,-0.30
2018-12-16T00:39:10.649Z,-0.20
2018-12-16T00:41:37.645Z,-0.30
2018-12-16T00:44:04.600Z,-0.30
2018-12-16T00:46:31.589Z,-0.20
2018-12-16T00:48:58.612Z,-0.10
2018-12-16T00:51:25.568Z,-0.20
2018-12-16T00:53:52.524Z,-0.30
2018-12-16T00:56:19.473Z,-0.30
2018-12-16T00:58:46.410Z,-0.30
2018-12-16T01:01:13.909Z,-0.20
2018-12-16T01:03:40.882Z,-0.10
2018-12-16T01:06:07.837Z,0.00
2018-12-16T01:08:34.791Z,0.00
2018-12-16T01:11:01.787Z,0.00
2018-12-16T01:13:28.763Z,-0.10
2018-12-16T01:15:55.716Z,0.00
2018-12-16T01:18:22.721Z,0.10
2018-12-16T01:20:49.668Z,0.20
2018-12-16T01:23:16.612Z,0.20
2018-12-16T01:25:43.618Z,0.20
2018-12-16T01:28:10.552Z,0.20
2018-12-16T01:30:37.576Z,0.20
2018-12-16T01:33:04.532Z,0.20
2018-12-16T01:35:31.479Z,0.20
2018-12-16T01:37:58.428Z,0.30
2018-12-16T01:40:25.400Z,0.20
2018-12-16T01:42:52.341Z,0.20
2018-12-16T01:45:19.291Z,0.20
2018-12-16T01:47:46.293Z,0.20
2018-12-16T01:50:13.333Z,0.10
2018-12-16T01:52:40.273Z,0.20
2018-12-16T01:55:07.378Z,0.30
2018-12-16T01:57:34.347Z,0.20
2018-12-16T02:00:01.281Z,0.30
2018-12-16T02:02:28.629Z,0.20
2018-12-16T02:04:55.563Z,0.20
2018-12-16T02:07:22.516Z,0.30
2018-12-16T02:09:49.491Z,0.20
2018-12-16T02:12:16.483Z,0.00
2018-12-16T02:14:43.441Z,0.30
2018-12-16T02:17:10.448Z,0.20
2018-12-16T02:19:37.804Z,0.30
2018-12-16T02:22:05.087Z,0.30
2018-12-16T02:24:32.462Z,0.30
2018-12-16T02:26:59.412Z,0.20
2018-12-16T02:29:26.416Z,0.70
2018-12-16T02:31:53.378Z,0.30
2018-12-16T02:34:20.633Z,0.30
2018-12-16T02:36:47.544Z,0.20
2018-12-16T02:39:14.531Z,0.20
2018-12-16T02:41:41.476Z,0.30
2018-12-16T02:44:08.424Z,0.20
2018-12-16T02:46:35.373Z,0.20
2018-12-16T02:49:02.320Z,0.20
2018-12-16T02:51:29.266Z,0.30
2018-12-16T02:53:56.217Z,0.40
2018-12-16T02:56:23.170Z,0.40
2018-12-16T02:58:50.097Z,0.30
2018-12-16T03:01:17.082Z,0.30
2018-12-16T03:03:44.416Z,0.30
2018-12-16T03:06:11.425Z,0.30
2018-12-16T03:08:38.409Z,0.20
2018-12-16T03:11:05.414Z,0.20
2018-12-16T03:13:32.359Z,0.10
2018-12-16T03:15:59.333Z,0.10
2018-12-16T03:18:26.285Z,0.10
2018-12-16T03:20:53.233Z,0.10
2018-12-16T03:23:20.187Z,0.20
2018-12-16T03:25:47.136Z,0.20
2018-12-16T03:28:14.121Z,0.20
2018-12-16T03:30:41.077Z,0.30
2018-12-16T03:33:08.039Z,0.20
2018-12-16T03:35:35.001Z,0.30
2018-12-16T03:38:01.961Z,0.20
2018-12-16T03:40:28.907Z,0.20
2018-12-16T03:42:55.863Z,0.20
2018-12-16T03:45:22.861Z,0.20
2018-12-16T03:47:49.814Z,0.20
2018-12-16T03:50:16.758Z,0.20
2018-12-16T03:52:43.711Z,0.20
2018-12-16T03:55:10.699Z,0.30
2018-12-16T03:57:37.665Z,0.70
2018-12-16T04:00:05.137Z,0.30
2018-12-16T04:02:32.075Z,0.30
2018-12-16T04:04:59.268Z,0.40
2018-12-16T04:07:26.239Z,0.30
2018-12-16T04:09:53.180Z,0.30
2018-12-16T04:12:20.168Z,0.30
2018-12-16T04:14:47.144Z,0.20
2018-12-16T04:17:14.079Z,0.40
2018-12-16T04:19:41.050Z,0.20
2018-12-16T04:22:08.070Z,0.10
2018-12-16T04:24:35.025Z,0.10
2018-12-16T04:27:01.973Z,0.30
2018-12-16T04:29:28.921Z,0.10
2018-12-16T04:31:55.852Z,0.10
2018-12-16T04:34:22.811Z,0.10
2018-12-16T04:36:49.774Z,0.20
2018-12-16T04:39:16.723Z,0.20
2018-12-16T04:41:43.682Z,0.20
2018-12-16T04:44:10.702Z,0.20
2018-12-16T04:46:37.630Z,0.20
2018-12-16T04:49:04.592Z,0.10
2018-12-16T04:51:31.546Z,0.20
2018-12-16T04:53:58.485Z,0.20
2018-12-16T04:56:25.417Z,0.20
2018-12-16T04:58:52.388Z,0.20
2018-12-16T05:01:19.344Z,0.20
2018-12-16T05:03:46.288Z,0.20
2018-12-16T05:06:13.448Z,0.10
2018-12-16T05:08:40.471Z,0.10
2018-12-16T05:11:07.441Z,0.00
2018-12-16T05:13:34.453Z,-0.10
2018-12-16T05:16:01.388Z,-0.20
2018-12-16T05:18:28.333Z,-0.20
2018-12-16T05:20:55.312Z,-0.30
2018-12-16T05:23:22.281Z,-0.30
2018-12-16T05:25:49.233Z,-0.40
2018-12-16T05:28:16.193Z,-0.30
2018-12-16T05:30:43.133Z,-0.40
2018-12-16T05:33:10.073Z,-0.40
2018-12-16T05:35:37.112Z,-0.40
2018-12-16T05:38:04.061Z,-0.40
2018-12-16T05:40:31.001Z,-0.40
2018-12-16T05:42:57.977Z,-0.40
2018-12-16T05:45:24.917Z,-0.30
2018-12-16T05:47:51.944Z,-0.20
2018-12-16T05:50:18.921Z,-0.20
2018-12-16T05:52:45.849Z,-0.30
2018-12-16T05:55:12.799Z,-0.30
2018-12-16T05:57:39.796Z,-0.40
2018-12-16T06:00:06.802Z,-0.40
2018-12-16T06:02:33.745Z,-0.40
2018-12-16T06:05:00.741Z,-0.50
2018-12-16T06:07:28.154Z,-0.40
2018-12-16T06:09:55.098Z,-0.40
2018-12-16T06:12:22.134Z,-0.40
2018-12-16T06:14:49.145Z,-0.20
2018-12-16T06:17:16.137Z,-0.20
2018-12-16T06:19:43.124Z,-0.20
2018-12-16T06:22:10.128Z,-0.20
2018-12-16T06:24:37.072Z,-0.10
2018-12-16T06:27:04.054Z,-0.10
2018-12-16T06:29:31.018Z,-0.10
2018-12-16T06:31:57.971Z,-0.20
2018-12-16T06:34:24.928Z,-0.10
2018-12-16T06:36:51.952Z,-0.10
2018-12-16T06:39:18.912Z,0.70
2018-12-16T06:41:45.886Z,0.00
2018-12-16T06:44:12.848Z,0.00
2018-12-16T06:46:39.792Z,0.00
2018-12-16T06:49:06.761Z,0.00
2018-12-16T06:51:33.704Z,0.10
2018-12-16T06:54:02.627Z,-0.10
2018-12-16T06:56:27.676Z,-0.10
2018-12-16T06:58:54.651Z,-0.10
2018-12-16T07:01:21.663Z,-0.10
2018-12-16T07:03:48.628Z,-0.10
2018-12-16T07:06:15.676Z,-0.20
2018-12-16T07:08:42.873Z,-0.20
2018-12-16T07:11:09.848Z,-0.20
2018-12-16T07:13:36.805Z,-0.10
2018-12-16T07:16:03.786Z,-0.20
2018-12-16T07:18:30.773Z,-0.20
2018-12-16T07:20:57.735Z,0.10
2018-12-16T07:23:24.680Z,-0.30
2018-12-16T07:25:51.704Z,-0.20
2018-12-16T07:28:18.659Z,-0.30
2018-12-16T07:30:45.603Z,-0.10
2018-12-16T07:33:12.587Z,0.00
2018-12-16T07:35:39.529Z,0.00
2018-12-16T07:38:06.502Z,0.00
2018-12-16T07:40:33.450Z,0.00
2018-12-16T07:43:00.418Z,0.10
2018-12-16T07:45:27.355Z,0.00
2018-12-16T07:47:54.315Z,-0.10
2018-12-16T07:50:21.447Z,0.00
2018-12-16T07:52:48.416Z,0.00
2018-12-16T07:55:15.363Z,0.20
2018-12-16T07:57:42.311Z,0.10
2018-12-16T08:00:10.536Z,0.20
2018-12-16T08:02:37.567Z,0.30
2018-12-16T08:05:04.776Z,0.20
2018-12-16T08:07:31.677Z,0.20
2018-12-16T08:09:58.859Z,0.30
2018-12-16T08:12:25.803Z,0.30
2018-12-16T08:14:52.757Z,0.30
2018-12-16T08:17:19.730Z,0.40
2018-12-16T08:19:46.720Z,0.50
2018-12-16T08:22:13.668Z,0.60
2018-12-16T08:24:40.660Z,0.60
2018-12-16T08:27:07.620Z,0.60
2018-12-16T08:29:34.601Z,0.60
2018-12-16T08:32:01.613Z,0.80
2018-12-16T08:34:28.559Z,0.70
2018-12-16T08:36:55.528Z,0.70
2018-12-16T08:39:22.548Z,0.80
2018-12-16T08:41:49.548Z,0.90
2018-12-16T08:44:16.520Z,0.90
2018-12-16T08:46:43.540Z,1.00
2018-12-16T08:49:10.492Z,1.10
2018-12-16T08:51:37.444Z,1.10
2018-12-16T08:54:04.426Z,1.20
2018-12-16T08:56:31.444Z,1.30
2018-12-16T08:58:58.364Z,1.40
2018-12-16T09:01:25.325Z,1.50
2018-12-16T09:03:52.309Z,1.50
2018-12-16T09:06:19.413Z,1.80
2018-12-16T09:08:46.437Z,1.80
2018-12-16T09:11:13.690Z,1.90
2018-12-16T09:13:40.644Z,1.90
2018-12-16T09:16:07.606Z,2.10
2018-12-16T09:18:34.547Z,2.00
2018-12-16T09:21:01.504Z,2.10
2018-12-16T09:23:28.469Z,2.20
2018-12-16T09:25:55.420Z,2.20
2018-12-16T09:28:22.420Z,2.40
2018-12-16T09:30:49.478Z,2.40
2018-12-16T09:33:16.523Z,2.30
2018-12-16T09:35:43.581Z,2.40
2018-12-16T09:38:10.911Z,2.40
2018-12-16T09:40:37.847Z,2.50
2018-12-16T09:43:04.849Z,2.40
2018-12-16T09:45:31.827Z,2.40
2018-12-16T09:47:58.775Z,2.50
2018-12-16T09:50:25.720Z,2.50
2018-12-16T09:52:52.676Z,2.50
2018-12-16T09:55:19.632Z,2.60
2018-12-16T09:57:46.579Z,2.70
2018-12-16T10:00:13.788Z,2.70
2018-12-16T10:02:40.750Z,2.90
2018-12-16T10:05:07.706Z,3.00
2018-12-16T10:07:34.829Z,2.90
2018-12-16T10:10:01.780Z,2.80
2018-12-16T10:12:29.463Z,2.90
2018-12-16T10:14:56.433Z,2.80
2018-12-16T10:17:23.765Z,3.00
2018-12-16T10:19:50.713Z,3.30
2018-12-16T10:22:17.765Z,3.60
2018-12-16T10:24:51.032Z,3.50
2018-12-16T10:27:11.660Z,3.60
2018-12-16T10:29:38.670Z,3.80
2018-12-16T10:32:05.580Z,3.60
2018-12-16T10:34:32.528Z,3.60
2018-12-16T10:36:59.585Z,3.60
2018-12-16T10:39:26.548Z,3.90
2018-12-16T10:41:53.482Z,4.10
2018-12-16T10:44:20.449Z,4.40
2018-12-16T10:46:47.432Z,5.00
2018-12-16T10:49:15.005Z,5.50
2018-12-16T10:51:42.338Z,6.10
2018-12-16T10:54:09.466Z,6.20
2018-12-16T10:56:36.645Z,6.10
2018-12-16T10:59:03.969Z,5.90
2018-12-16T11:01:31.041Z,5.60
2018-12-16T11:03:58.225Z,5.50
2018-12-16T11:06:25.302Z,5.00
2018-12-16T11:08:52.339Z,5.20
2018-12-16T11:11:19.352Z,5.20
2018-12-16T11:13:46.851Z,5.50
2018-12-16T11:16:13.845Z,5.40
2018-12-16T11:18:40.796Z,5.40
2018-12-16T11:21:07.755Z,6.00
2018-12-16T11:23:34.689Z,5.90
2018-12-16T11:26:01.645Z,6.00
2018-12-16T11:28:28.824Z,5.80
2018-12-16T11:30:55.861Z,5.90
2018-12-16T11:33:23.270Z,6.00
2018-12-16T11:35:50.485Z,6.10
2018-12-16T11:38:17.541Z,6.10
2018-12-16T11:40:44.516Z,6.20
2018-12-16T11:43:11.473Z,6.00
2018-12-16T11:45:38.448Z,6.30
2018-12-16T11:48:06.051Z,6.70
2018-12-16T11:50:32.987Z,7.40
2018-12-16T11:52:59.936Z,7.80
2018-12-16T11:55:26.918Z,8.00
2018-12-16T11:57:53.887Z,8.00
2018-12-16T12:00:20.877Z,7.70
2018-12-16T12:02:48.415Z,7.40
2018-12-16T12:05:15.409Z,6.80
2018-12-16T12:07:42.483Z,6.10
2018-12-16T12:10:09.669Z,5.50
2018-12-16T12:12:36.635Z,5.40
2018-12-16T12:15:04.179Z,5.10
2018-12-16T12:17:31.213Z,5.00
2018-12-16T12:19:58.233Z,5.00
2018-12-16T12:22:25.452Z,4.80
2018-12-16T12:24:52.464Z,5.00
2018-12-16T12:27:19.660Z,4.80
2018-12-16T12:29:46.628Z,4.80
2018-12-16T12:32:13.952Z,4.60
2018-12-16T12:34:41.183Z,4.70
2018-12-16T12:37:08.735Z,4.70
2018-12-16T12:39:35.699Z,4.60
2018-12-16T12:42:02.673Z,4.50
2018-12-16T12:44:29.624Z,4.50
2018-12-16T12:46:56.580Z,4.50
2018-12-16T12:49:23.611Z,4.80
2018-12-16T12:51:50.601Z,4.40
2018-12-16T12:54:17.579Z,4.40
2018-12-16T12:56:44.551Z,4.40
2018-12-16T12:59:11.514Z,4.50
2018-12-16T13:01:38.548Z,4.40
2018-12-16T13:04:05.514Z,4.30
2018-12-16T13:06:32.465Z,4.40
2018-12-16T13:08:59.452Z,4.40
2018-12-16T13:11:26.532Z,4.40
2018-12-16T13:13:53.528Z,4.40
2018-12-16T13:16:21.277Z,4.40
2018-12-16T13:18:48.274Z,4.50
2018-12-16T13:21:15.229Z,4.60
2018-12-16T13:23:43.082Z,4.70
2018-12-16T13:26:10.383Z,4.60
2018-12-16T13:28:37.579Z,4.70
2018-12-16T13:31:04.587Z,4.60
2018-12-16T13:33:31.604Z,4.80
2018-12-16T13:35:58.582Z,4.60
2018-12-16T13:38:25.516Z,4.70
2018-12-16T13:40:52.581Z,4.80
2018-12-16T13:43:19.578Z,4.60
2018-12-16T13:45:46.519Z,4.50
2018-12-16T13:48:13.535Z,4.50
2018-12-16T13:50:40.636Z,4.60
2018-12-16T13:53:07.700Z,4.60
2018-12-16T13:55:40.671Z,4.50
2018-12-16T13:58:01.665Z,4.50
2018-12-16T14:00:28.637Z,4.60
2018-12-16T14:02:55.613Z,4.70
2018-12-16T14:05:22.592Z,4.50
2018-12-16T14:07:49.547Z,4.40
2018-12-16T14:10:16.509Z,4.50
2018-12-16T14:12:43.450Z,4.50
2018-12-16T14:15:10.404Z,4.50
2018-12-16T14:17:37.896Z,4.40
2018-12-16T14:20:06.533Z,4.50
2018-12-16T14:22:33.481Z,4.40
2018-12-16T14:25:00.476Z,4.40
2018-12-16T14:27:27.423Z,4.40
2018-12-16T14:29:54.397Z,4.40
2018-12-16T14:32:21.391Z,4.40
2018-12-16T14:34:48.379Z,4.40
2018-12-16T14:37:15.315Z,4.40
2018-12-16T14:39:42.290Z,4.50
2018-12-16T14:42:09.236Z,4.40
2018-12-16T14:44:36.175Z,4.50
2018-12-16T14:47:03.186Z,4.40
2018-12-16T14:49:30.145Z,4.50
2018-12-16T14:51:57.088Z,4.50
2018-12-16T14:54:24.041Z,4.30
2018-12-16T14:56:50.996Z,4.40
2018-12-16T14:59:17.963Z,4.50
2018-12-16T15:01:44.915Z,4.40
2018-12-16T15:04:11.901Z,4.40
2018-12-16T15:06:38.929Z,4.40
2018-12-16T15:09:07.637Z,4.30
2018-12-16T15:11:34.645Z,4.30
2018-12-16T15:14:01.633Z,4.30
2018-12-16T15:16:28.591Z,4.40
2018-12-16T15:18:55.936Z,4.40
2018-12-16T15:21:22.876Z,4.30
2018-12-16T15:23:49.868Z,4.40
2018-12-16T15:26:16.821Z,4.30
2018-12-16T15:28:43.811Z,4.40
2018-12-16T15:31:10.755Z,4.20
2018-12-16T15:33:37.708Z,4.20
2018-12-16T15:36:04.652Z,4.10
2018-12-16T15:38:31.680Z,4.10
2018-12-16T15:40:58.617Z,4.10
2018-12-16T15:43:25.588Z,4.30
2018-12-16T15:45:52.611Z,4.20
2018-12-16T15:48:19.564Z,4.10
2018-12-16T15:50:47.878Z,4.00
2018-12-16T15:53:13.551Z,4.10
2018-12-16T15:55:40.500Z,4.10
2018-12-16T15:58:07.472Z,4.00
2018-12-16T16:00:34.447Z,4.10
2018-12-16T16:03:01.380Z,3.90
2018-12-16T16:05:28.347Z,3.90
2018-12-16T16:07:55.290Z,3.90
2018-12-16T16:10:22.221Z,4.00
2018-12-16T16:12:49.163Z,4.00
2018-12-16T16:15:16.120Z,4.10
2018-12-16T16:17:43.080Z,3.90
2018-12-16T16:20:10.655Z,3.90
2018-12-16T16:22:37.643Z,3.80
2018-12-16T16:25:04.588Z,3.90
2018-12-16T16:27:31.552Z,3.90
2018-12-16T16:29:58.565Z,3.80
2018-12-16T16:32:25.525Z,3.80
2018-12-16T16:34:52.478Z,3.70
2018-12-16T16:37:19.450Z,3.80
2018-12-16T16:39:46.401Z,3.70
2018-12-16T16:42:13.324Z,3.70
2018-12-16T16:44:40.293Z,3.70
2018-12-16T16:47:07.256Z,3.80
2018-12-16T16:49:34.189Z,4.00
2018-12-16T16:52:01.174Z,4.00
2018-12-16T16:54:28.099Z,3.90
2018-12-16T16:56:55.050Z,3.80
2018-12-16T16:59:22.049Z,3.90
2018-12-16T17:01:48.976Z,3.90
2018-12-16T17:04:15.922Z,3.90
2018-12-16T17:06:42.900Z,3.80
2018-12-16T17:09:09.848Z,3.80
2018-12-16T17:11:36.805Z,3.80
2018-12-16T17:14:03.789Z,3.80
2018-12-16T17:16:30.731Z,3.70
2018-12-16T17:18:58.216Z,3.60
2018-12-16T17:21:25.355Z,3.50
2018-12-16T17:23:52.312Z,3.50
2018-12-16T17:26:19.251Z,3.20
2018-12-16T17:28:46.216Z,3.60
2018-12-16T17:31:13.160Z,3.60
2018-12-16T17:33:40.096Z,3.60
2018-12-16T17:36:07.063Z,3.60
2018-12-16T17:38:34.002Z,3.50
2018-12-16T17:41:00.928Z,3.40
2018-12-16T17:43:27.917Z,3.40
2018-12-16T17:45:54.847Z,3.50
2018-12-16T17:48:21.812Z,3.50
2018-12-16T17:50:48.751Z,3.50
2018-12-16T17:53:15.691Z,3.40
2018-12-16T17:55:42.637Z,3.50
2018-12-16T17:58:09.571Z,3.50
2018-12-16T18:00:36.518Z,3.50
2018-12-16T18:03:03.461Z,3.50
2018-12-16T18:05:30.444Z,3.50
2018-12-16T18:07:57.371Z,3.40
2018-12-16T18:10:24.313Z,3.40
2018-12-16T18:12:51.261Z,3.50
2018-12-16T18:15:18.208Z,3.60
2018-12-16T18:17:45.153Z,3.50
2018-12-16T18:20:12.127Z,3.50
2018-12-16T18:22:39.476Z,3.40
2018-12-16T18:25:06.440Z,3.40
2018-12-16T18:27:33.406Z,3.30
2018-12-16T18:30:00.344Z,3.40
2018-12-16T18:32:27.360Z,3.40
2018-12-16T18:34:54.346Z,3.50
2018-12-16T18:37:21.288Z,3.40
2018-12-16T18:39:48.248Z,3.40
2018-12-16T18:42:15.264Z,3.30
2018-12-16T18:44:42.208Z,3.30
2018-12-16T18:47:09.149Z,3.40
2018-12-16T18:49:37.057Z,3.40
2018-12-16T18:52:04.047Z,3.50
2018-12-16T18:54:31.047Z,3.50
2018-12-16T18:56:58.080Z,3.50
2018-12-16T18:59:25.005Z,3.50
2018-12-16T19:01:51.935Z,3.60
2018-12-16T19:04:21.002Z,3.70
2018-12-16T19:06:47.949Z,3.60
2018-12-16T19:09:15.021Z,3.60
2018-12-16T19:11:42.010Z,3.60
2018-12-16T19:14:09.028Z,3.60
2018-12-16T19:16:35.999Z,3.70
2018-12-16T19:19:02.985Z,3.70
2018-12-16T19:21:29.933Z,3.80
2018-12-16T19:23:58.317Z,3.80
2018-12-16T19:26:25.230Z,3.80
2018-12-16T19:28:52.246Z,3.80
2018-12-16T19:31:19.239Z,3.70
2018-12-16T19:33:46.872Z,3.70
2018-12-16T19:36:13.870Z,3.70
2018-12-16T19:38:40.820Z,3.80
2018-12-16T19:41:07.876Z,3.90
2018-12-16T19:43:35.426Z,3.90
2018-12-16T19:46:02.461Z,3.90
2018-12-16T19:48:29.863Z,4.00
2018-12-16T19:50:56.848Z,3.80
2018-12-16T19:53:23.814Z,3.80
2018-12-16T19:55:50.826Z,3.90
2018-12-16T19:58:17.803Z,3.90
2018-12-16T20:00:44.883Z,3.80
2018-12-16T20:03:11.890Z,3.80
2018-12-16T20:05:44.624Z,3.80
2018-12-16T20:08:11.801Z,3.80
2018-12-16T20:10:38.785Z,3.80
2018-12-16T20:13:05.761Z,3.80
2018-12-16T20:15:32.706Z,3.80
2018-12-16T20:17:59.756Z,3.90
2018-12-16T20:20:26.744Z,3.80
2018-12-16T20:22:53.880Z,3.90
2018-12-16T20:25:21.319Z,3.80
2018-12-16T20:27:48.262Z,3.80
2018-12-16T20:30:21.789Z,3.90
2018-12-16T20:32:48.752Z,3.90
2018-12-16T20:35:15.724Z,3.90
2018-12-16T20:37:42.747Z,3.90
2018-12-16T20:40:09.716Z,3.90
2018-12-16T20:42:36.655Z,3.80
2018-12-16T20:45:04.792Z,3.90
2018-12-16T20:47:31.821Z,3.90
2018-12-16T20:49:58.800Z,3.90
2018-12-16T20:52:25.757Z,3.80
2018-12-16T20:54:52.702Z,3.80
2018-12-16T20:57:19.658Z,3.80
2018-12-16T20:59:46.614Z,3.90
2018-12-16T21:02:13.561Z,3.80
2018-12-16T21:04:40.489Z,3.80
2018-12-16T21:07:07.454Z,3.70
2018-12-16T21:09:34.406Z,3.80
2018-12-16T21:12:01.351Z,3.90
2018-12-16T21:14:34.261Z,3.80
2018-12-16T21:17:07.055Z,3.80
2018-12-16T21:19:33.991Z,3.90
2018-12-16T21:22:00.984Z,3.80
2018-12-16T21:24:27.931Z,3.80
2018-12-16T21:26:55.140Z,3.70
2018-12-16T21:29:22.108Z,3.80
2018-12-16T21:31:49.068Z,3.70
2018-12-16T21:34:16.039Z,3.70
2018-12-16T21:36:43.033Z,3.70
2018-12-16T21:39:10.001Z,3.80
2018-12-16T21:41:37.060Z,3.70
2018-12-16T21:44:04.018Z,3.70
2018-12-16T21:46:30.976Z,3.70
2018-12-16T21:48:57.913Z,3.60
2018-12-16T21:51:24.886Z,3.70
2018-12-16T21:53:51.834Z,3.60
2018-12-16T21:56:18.796Z,3.60
2018-12-16T21:58:45.753Z,3.70
2018-12-16T22:01:12.679Z,3.70
2018-12-16T22:03:39.637Z,3.60
2018-12-16T22:06:06.604Z,3.50
2018-12-16T22:08:33.587Z,3.50
2018-12-16T22:11:00.521Z,3.40
2018-12-16T22:13:27.473Z,3.30
2018-12-16T22:15:54.466Z,3.30
2018-12-16T22:18:21.336Z,3.40
2018-12-16T22:20:48.314Z,3.30
2018-12-16T22:23:15.255Z,3.40
2018-12-16T22:25:42.240Z,3.30
2018-12-16T22:28:09.634Z,3.30
2018-12-16T22:30:36.576Z,3.30
2018-12-16T22:33:03.573Z,3.30
2018-12-16T22:35:30.545Z,3.40
2018-12-16T22:37:57.509Z,3.30
2018-12-16T22:40:24.442Z,3.40
2018-12-16T22:42:51.406Z,3.40
2018-12-16T22:45:18.344Z,3.30
2018-12-16T22:47:45.292Z,3.40
2018-12-16T22:50:12.283Z,3.40
2018-12-16T22:52:39.229Z,3.40
2018-12-16T22:55:06.165Z,3.40
2018-12-16T22:57:33.137Z,3.40
2018-12-16T23:00:00.092Z,3.40
2018-12-16T23:02:27.048Z,3.40
2018-12-16T23:04:54.012Z,3.50
2018-12-16T23:07:20.976Z,3.40
2018-12-16T23:09:47.936Z,3.30
2018-12-16T23:12:14.926Z,3.40
2018-12-16T23:14:41.876Z,3.40
2018-12-16T23:17:08.825Z,3.40
2018-12-16T23:19:35.833Z,3.40
2018-12-16T23:22:02.776Z,3.40
2018-12-16T23:24:29.751Z,3.40
2018-12-16T23:26:56.747Z,3.30
2018-12-16T23:29:24.143Z,3.40
2018-12-16T23:31:51.091Z,3.50
2018-12-16T23:34:18.054Z,3.40
2018-12-16T23:36:45.022Z,3.50
2018-12-16T23:39:12.017Z,3.50
2018-12-16T23:41:38.997Z,3.50
2018-12-16T23:44:05.931Z,3.50
2018-12-16T23:46:32.869Z,3.40
2018-12-16T23:48:59.861Z,3.40
2018-12-16T23:51:26.823Z,3.40
2018-12-16T23:53:53.769Z,3.30
2018-12-16T23:56:20.776Z,3.30
2018-12-16T23:58:47.704Z,3.40
